aviador You're here:

SBRF Decoded Metar

RECIFE in BRAZIL
Report Time2018-04-24 18:00:00
UTC Time2018-04-24 18:28:43
Flight Rules vfr VFR
Wind120° at 10 kt
W.Decomp.*RWY 18: 7.9 kt HW 6.2 kt LCW
W.Rank120° ranks 3
Current wind is above 120° avg. (8.7)
Visibility9999 m
Phenomena:N/A
Clouds:Few 019 Hf
Broken 050 Hf
Expected CloudBase > 2,000 ft AGL from Temp-Dew spread
Ceiling5,000 ft
Temp28°C (ISA +13)
Dew Point23°C (74% RH)
Heat Index31.2°C
QNH1012 hPa
Density Alt1,975 ft
Elevation62 ft
Report Wrong Elevation
Raw Report
METAR SBRF 241800Z 12010KT 9999 FEW019 BKN050 28/23 Q1012=

Extra information for SBRF:More info

Metar Taf Metar & Taf Last 4 Metars F.Rules Stats Wind Profile Meteogram Temp Stats Airport Information Weather charts Add Link Nearby VenuesMetar ALERT Operation Metar Decoded Social comments